createdAt,value
2016-10-25T00:03:11.608Z,-78
2016-10-25T00:08:08.158Z,-78
2016-10-25T00:13:04.745Z,-78
2016-10-25T00:18:01.257Z,-78
2016-10-25T00:22:57.736Z,-78
2016-10-25T00:27:54.085Z,-77
2016-10-25T00:32:52.881Z,-80
2016-10-25T00:42:49.308Z,-80
2016-10-25T00:47:45.723Z,-80
2016-10-25T00:52:42.776Z,-80
2016-10-25T00:57:39.082Z,-79
2016-10-25T01:02:36.766Z,-78
2016-10-25T01:07:32.840Z,-79
2016-10-25T01:12:29.245Z,-79
2016-10-25T01:17:26.598Z,-79
2016-10-25T01:22:23.769Z,-79
2016-10-25T01:27:20.576Z,-79
2016-10-25T01:32:17.100Z,-80
2016-10-25T01:37:13.529Z,-79
2016-10-25T01:42:10.016Z,-79
2016-10-25T01:47:06.790Z,-79
2016-10-25T01:52:03.144Z,-80
2016-10-25T01:56:59.520Z,-79
2016-10-25T02:01:56.095Z,-79
2016-10-25T02:06:53.709Z,-80
2016-10-25T02:11:49.840Z,-80
2016-10-25T02:16:46.471Z,-80
2016-10-25T02:21:42.714Z,-79
2016-10-25T02:26:39.426Z,-80
2016-10-25T02:31:36.034Z,-79
2016-10-25T02:36:33.108Z,-79
2016-10-25T02:41:29.608Z,-80
2016-10-25T02:46:26.003Z,-80
2016-10-25T02:51:22.515Z,-79
2016-10-25T02:56:18.845Z,-79
2016-10-25T03:01:15.347Z,-80
2016-10-25T03:06:12.051Z,-81
2016-10-25T03:11:08.351Z,-79
2016-10-25T03:16:05.322Z,-80
2016-10-25T03:21:02.651Z,-80
2016-10-25T03:25:59.190Z,-80
2016-10-25T03:30:56.694Z,-80
2016-10-25T03:35:53.072Z,-80
2016-10-25T03:40:49.559Z,-81
2016-10-25T03:45:46.861Z,-82
2016-10-25T03:50:43.539Z,-81
2016-10-25T03:55:40.093Z,-80
2016-10-25T04:00:36.874Z,-80
2016-10-25T04:05:34.019Z,-80
2016-10-25T04:10:30.420Z,-78
2016-10-25T04:15:26.887Z,-81
2016-10-25T04:20:23.297Z,-81
2016-10-25T04:25:20.100Z,-80
2016-10-25T04:30:17.217Z,-83
2016-10-25T04:35:13.776Z,-80
2016-10-25T04:40:10.260Z,-83
2016-10-25T04:45:07.160Z,-80
2016-10-25T04:50:04.362Z,-80
2016-10-25T04:55:00.781Z,-82
2016-10-25T04:59:57.630Z,-80
2016-10-25T05:04:53.901Z,-81
2016-10-25T05:09:50.351Z,-80
2016-10-25T05:14:46.907Z,-81
2016-10-25T05:19:43.335Z,-81
2016-10-25T05:24:39.890Z,-81
2016-10-25T05:29:36.473Z,-81
2016-10-25T05:34:33.061Z,-81
2016-10-25T05:39:29.761Z,-80
2016-10-25T05:44:26.647Z,-80
2016-10-25T05:49:23.112Z,-81
2016-10-25T05:54:19.443Z,-81
2016-10-25T05:59:15.968Z,-80
2016-10-25T06:04:12.479Z,-80
2016-10-25T06:09:08.990Z,-82
2016-10-25T06:14:05.664Z,-80
2016-10-25T06:19:01.990Z,-81
2016-10-25T06:23:58.645Z,-80
2016-10-25T06:28:55.065Z,-80
2016-10-25T06:33:51.341Z,-80
2016-10-25T06:38:48.268Z,-79
2016-10-25T06:43:44.838Z,-79
2016-10-25T06:48:41.439Z,-78
2016-10-25T06:53:38.128Z,-76
2016-10-25T06:58:35.318Z,-80
2016-10-25T07:03:31.636Z,-77
2016-10-25T07:08:29.410Z,-78
2016-10-25T07:13:25.693Z,-77
2016-10-25T07:18:22.348Z,-76
2016-10-25T07:23:18.764Z,-78
2016-10-25T07:28:15.322Z,-76
2016-10-25T07:33:11.830Z,-79
2016-10-25T07:38:08.296Z,-76
2016-10-25T07:43:04.926Z,-78
2016-10-25T07:48:01.386Z,-77
2016-10-25T07:52:57.937Z,-77
2016-10-25T07:57:54.999Z,-78
2016-10-25T08:02:51.697Z,-76
2016-10-25T08:07:50.747Z,-78
2016-10-25T08:12:46.497Z,-76
2016-10-25T08:17:43.134Z,-76
2016-10-25T08:22:40.058Z,-76
2016-10-25T08:27:36.625Z,-75
2016-10-25T08:32:33.090Z,-76
2016-10-25T08:37:29.316Z,-76
2016-10-25T08:42:25.978Z,-76
2016-10-25T08:47:23.066Z,-75
2016-10-25T08:52:20.411Z,-76
2016-10-25T08:57:17.681Z,-76
2016-10-25T09:02:14.289Z,-77
2016-10-25T09:07:12.934Z,-79
2016-10-25T09:12:08.694Z,-75
2016-10-25T09:17:05.253Z,-75
2016-10-25T09:22:02.199Z,-74
2016-10-25T09:26:58.582Z,-74
2016-10-25T09:31:55.236Z,-75
2016-10-25T09:36:51.821Z,-74
2016-10-25T09:41:48.416Z,-76
2016-10-25T09:46:45.129Z,-74
2016-10-25T09:51:42.326Z,-74
2016-10-25T09:56:38.817Z,-74
2016-10-25T10:01:35.387Z,-78
2016-10-25T10:06:31.916Z,-74
2016-10-25T10:11:28.362Z,-77
2016-10-25T10:16:24.727Z,-73
2016-10-25T10:21:21.584Z,-79
2016-10-25T10:26:18.185Z,-74
2016-10-25T10:31:14.252Z,-76
2016-10-25T10:36:11.380Z,-75
2016-10-25T10:41:07.897Z,-78
2016-10-25T10:46:04.905Z,-76
2016-10-25T10:51:01.671Z,-76
2016-10-25T10:55:58.426Z,-74
2016-10-25T11:00:55.080Z,-79
2016-10-25T11:05:51.524Z,-76
2016-10-25T11:10:48.004Z,-78
2016-10-25T11:15:44.099Z,-74
2016-10-25T11:20:41.414Z,-75
2016-10-25T11:25:38.086Z,-76
2016-10-25T11:30:34.662Z,-73
2016-10-25T11:35:31.558Z,-75
2016-10-25T11:40:28.098Z,-73
2016-10-25T11:45:24.753Z,-73
2016-10-25T11:50:21.334Z,-75
2016-10-25T11:55:17.812Z,-74
2016-10-25T12:00:14.140Z,-74
2016-10-25T12:05:10.938Z,-74
2016-10-25T12:10:07.100Z,-72
2016-10-25T12:15:03.896Z,-72
2016-10-25T12:20:00.654Z,-73
2016-10-25T12:24:57.121Z,-73
2016-10-25T12:29:53.516Z,-72
2016-10-25T12:34:50.273Z,-72
2016-10-25T12:39:46.873Z,-75
2016-10-25T12:44:43.426Z,-74
2016-10-25T12:49:39.808Z,-73
2016-10-25T12:54:37.172Z,-72
2016-10-25T12:59:33.424Z,-71
2016-10-25T13:04:31.217Z,-73
2016-10-25T13:09:27.271Z,-74
2016-10-25T13:14:24.042Z,-72
2016-10-25T13:19:20.463Z,-75
2016-10-25T13:24:16.808Z,-73
2016-10-25T13:29:13.258Z,-74
2016-10-25T13:34:09.762Z,-74
2016-10-25T13:39:06.558Z,-71
2016-10-25T13:44:03.050Z,-74
2016-10-25T13:48:59.522Z,-73
2016-10-25T13:53:56.082Z,-74
2016-10-25T13:58:52.483Z,-73
2016-10-25T14:03:49.160Z,-74
2016-10-25T14:08:46.571Z,-76
2016-10-25T14:13:42.444Z,-72
2016-10-25T14:18:39.303Z,-72
2016-10-25T14:23:36.205Z,-73
2016-10-25T14:28:32.700Z,-74
2016-10-25T14:33:29.268Z,-72
2016-10-25T14:38:25.794Z,-73
2016-10-25T14:43:22.153Z,-74
2016-10-25T14:48:18.784Z,-74
2016-10-25T14:53:15.237Z,-73
2016-10-25T14:58:11.754Z,-75
2016-10-25T15:03:08.368Z,-74
2016-10-25T15:08:04.887Z,-73
2016-10-25T15:13:01.364Z,-73
2016-10-25T15:17:57.815Z,-73
2016-10-25T15:22:54.390Z,-74
2016-10-25T15:27:50.965Z,-73
2016-10-25T15:32:47.936Z,-74
2016-10-25T15:37:46.881Z,-74
2016-10-25T15:42:42.804Z,-73
2016-10-25T15:47:39.697Z,-74
2016-10-25T15:52:35.995Z,-74
2016-10-25T15:57:32.982Z,-73
2016-10-25T16:02:30.764Z,-73
2016-10-25T16:07:27.154Z,-74
2016-10-25T16:12:23.559Z,-74
2016-10-25T16:17:20.203Z,-73
2016-10-25T16:22:16.786Z,-74
2016-10-25T16:27:13.767Z,-74
2016-10-25T16:32:10.241Z,-73
2016-10-25T16:37:07.286Z,-72
2016-10-25T16:42:03.767Z,-73
2016-10-25T16:47:00.426Z,-75
2016-10-25T16:51:56.724Z,-74
2016-10-25T16:56:53.088Z,-74
2016-10-25T17:01:50.000Z,-74
2016-10-25T17:06:46.488Z,-74
2016-10-25T17:11:43.089Z,-73
2016-10-25T17:16:40.047Z,-73
2016-10-25T17:21:37.108Z,-74
2016-10-25T17:26:33.625Z,-73
2016-10-25T17:31:29.919Z,-73
2016-10-25T17:36:27.108Z,-72
2016-10-25T17:41:23.550Z,-73
2016-10-25T17:46:21.515Z,-76
2016-10-25T17:51:18.314Z,-74
2016-10-25T17:56:14.811Z,-74
2016-10-25T18:01:11.711Z,-73
2016-10-25T18:06:07.799Z,-75
2016-10-25T18:11:04.657Z,-74
2016-10-25T18:16:00.862Z,-74
2016-10-25T18:20:58.076Z,-73
2016-10-25T18:30:55.053Z,-75
2016-10-25T18:35:51.494Z,-73
2016-10-25T18:40:48.536Z,-75
2016-10-25T18:45:45.013Z,-75
2016-10-25T18:50:41.591Z,-74
2016-10-25T18:55:38.463Z,-74
2016-10-25T19:00:35.154Z,-77
2016-10-25T19:05:31.658Z,-76
2016-10-25T19:10:27.999Z,-75
2016-10-25T19:15:24.623Z,-75
2016-10-25T19:20:21.397Z,-74
2016-10-25T19:25:17.913Z,-77
2016-10-25T19:30:14.299Z,-74
2016-10-25T19:35:11.000Z,-74
2016-10-25T19:40:07.419Z,-74
2016-10-25T19:45:04.860Z,-75
2016-10-25T19:50:01.022Z,-74
2016-10-25T19:55:00.120Z,-74
2016-10-25T19:59:56.183Z,-73
2016-10-25T20:04:52.361Z,-75
2016-10-25T20:09:49.093Z,-74
2016-10-25T20:14:45.542Z,-75
2016-10-25T20:19:42.094Z,-79
2016-10-25T20:24:38.355Z,-76
2016-10-25T20:29:34.771Z,-76
2016-10-25T20:34:31.392Z,-76
2016-10-25T20:39:27.699Z,-74
2016-10-25T20:44:24.321Z,-78
2016-10-25T20:49:21.012Z,-76
2016-10-25T20:54:17.506Z,-73
2016-10-25T20:59:14.070Z,-74
2016-10-25T21:04:10.850Z,-73
2016-10-25T21:09:08.901Z,-74
2016-10-25T21:14:05.120Z,-74
2016-10-25T21:19:01.704Z,-75
2016-10-25T21:23:58.364Z,-74
2016-10-25T21:28:55.011Z,-74
2016-10-25T21:33:51.108Z,-74
2016-10-25T21:38:47.570Z,-74
2016-10-25T21:43:44.020Z,-75
2016-10-25T21:48:40.375Z,-76
2016-10-25T21:53:37.170Z,-79
2016-10-25T21:58:33.583Z,-79
2016-10-25T22:03:30.043Z,-79
2016-10-25T22:08:26.588Z,-79
2016-10-25T22:13:23.253Z,-78
2016-10-25T22:18:20.087Z,-79
2016-10-25T22:23:17.653Z,-80
2016-10-25T22:28:13.773Z,-79
2016-10-25T22:33:10.750Z,-79
2016-10-25T22:38:07.842Z,-80
2016-10-25T22:43:03.992Z,-78
2016-10-25T22:48:00.435Z,-80
2016-10-25T22:52:59.393Z,-78
2016-10-25T22:57:55.271Z,-79
2016-10-25T23:02:51.455Z,-78
2016-10-25T23:07:48.016Z,-79
2016-10-25T23:12:44.475Z,-79
2016-10-25T23:17:41.046Z,-75
2016-10-25T23:22:38.136Z,-77
2016-10-25T23:27:34.892Z,-78
2016-10-25T23:32:31.394Z,-74
2016-10-25T23:37:28.995Z,-80
2016-10-25T23:42:25.639Z,-76
2016-10-25T23:47:22.116Z,-76
2016-10-25T23:52:18.394Z,-78
2016-10-25T23:57:14.887Z,-77
